Terminal Aerodrome Forecast
Issued by NWS

Home | Current Version | Previous Version | Text Only | Print | Product List | Glossary On
Versions: 1 2 3 4 5 6 7 8 9 10 11 12 13 14 15 16 17 18 19
914
FTUS41 KPBZ 291136
TAFDUJ
TAF
KDUJ 291136Z 2912/3012 09010G18KT 5SM -SHRA BKN008
      TEMPO 2912/2914 2SM SHRA
     FM291600 10012G21KT 5SM -SHRA OVC008
     FM300200 10012G25KT 3SM -SHRA BR OVC010
     FM300600 10012G20KT 3SM -SHRA BR OVC008=

USA.gov is the U.S. government's official web portal to all federal, state and local government web resources and services.